Time;durP1;ratioP1;P1;durP2;ratioP2;P2;SDS_P1;SDS_P2;PMS_P1;PMS_P2;Temp;Humidity;BMP_temperature;BMP_pressure;BME280_temperature;BME280_humidity;BME280_pressure;Samples;Min_cycle;Max_cycle;Signal;HPM_P1;HPM_P2
2021/10/03 00:00:36;;;;;;;;;0.00;0.00;;;;;17.46;77.43;99259.22;5083763;27;45457;-76
2021/10/03 00:03:04;;;;;;;;;0.00;0.00;;;;;17.46;77.33;99270.56;5083243;27;45389;-76
2021/10/03 00:05:30;;;;;;;;;0.00;0.00;;;;;17.50;77.77;99258.16;5083180;27;45235;-76
2021/10/03 00:07:59;;;;;;;;;0.00;0.00;;;;;17.46;77.37;99256.59;5082082;28;45281;-76
2021/10/03 00:10:27;;;;;;;;;0.00;0.00;;;;;17.50;77.09;99259.94;5083228;27;45373;-76
2021/10/03 00:12:52;;;;;;;;;0.00;0.00;;;;;17.46;77.20;99246.91;5065065;28;47426;-76
2021/10/03 00:15:19;;;;;;;;;0.00;0.00;;;;;17.63;77.66;99268.13;5062867;28;45310;-77
2021/10/03 00:17:46;;;;;;;;;0.00;0.00;;;;;17.64;77.19;99247.00;5061528;28;45322;-76
2021/10/03 00:20:13;;;;;;;;;0.00;0.00;;;;;17.60;76.94;99243.69;5062162;28;45342;-76
2021/10/03 00:22:39;;;;;;;;;0.00;0.00;;;;;17.47;76.84;99219.69;5060589;28;48328;-76
2021/10/03 00:25:07;;;;;;;;;0.00;0.00;;;;;17.55;77.54;99226.38;5060310;28;45606;-76
2021/10/03 00:27:32;;;;;;;;;0.00;0.00;;;;;17.56;77.17;99228.09;5062376;28;45412;-76
2021/10/03 00:29:58;;;;;;;;;0.00;0.00;;;;;17.56;77.20;99236.84;5059999;28;45494;-76
2021/10/03 00:32:23;;;;;;;;;0.00;0.00;;;;;17.55;76.82;99227.22;5060871;28;48040;-76
2021/10/03 00:34:48;;;;;;;;;0.00;0.00;;;;;17.33;77.28;99179.97;5062759;28;45264;-76
2021/10/03 00:37:14;;;;;;;;;0.00;0.00;;;;;17.60;76.90;99232.28;5061261;28;45863;-76
2021/10/03 00:39:39;;;;;;;;;0.00;0.00;;;;;17.33;76.82;99183.47;5079660;28;45250;-76
2021/10/03 00:42:04;;;;;;;;;0.00;0.00;;;;;17.64;76.80;99236.47;5080595;28;46963;-76
2021/10/03 00:44:30;;;;;;;;;0.00;0.00;;;;;17.69;77.16;99228.38;5083159;27;45238;-76
2021/10/03 00:46:57;;;;;;;;;0.00;0.00;;;;;17.70;76.58;99209.06;5080524;28;45310;-76
2021/10/03 00:49:24;;;;;;;;;0.00;0.00;;;;;17.65;76.78;99200.50;5080641;28;45310;-76
2021/10/03 00:51:50;;;;;;;;;0.00;0.00;;;;;17.74;76.71;99218.53;5080858;28;47148;-76
2021/10/03 00:54:15;;;;;;;;;0.00;0.00;;;;;17.76;76.67;99221.09;5081085;28;47003;-76
2021/10/03 00:56:41;;;;;;;;;0.00;0.00;;;;;17.66;76.69;99200.44;5081293;28;45374;-77
2021/10/03 00:59:07;;;;;;;;;0.00;0.00;;;;;17.72;76.22;99223.84;5083116;27;45481;-76
2021/10/03 01:01:32;;;;;;;;;0.00;0.00;;;;;17.67;76.15;99210.03;5082770;27;45295;-76
2021/10/03 01:03:58;;;;;;;;;0.00;0.00;;;;;17.64;76.22;99209.34;5080729;28;46134;-76
2021/10/03 01:06:24;;;;;;;;;1.00;0.00;;;;;17.57;76.76;99199.09;5082616;27;45243;-76
2021/10/03 01:08:49;;;;;;;;;0.00;0.00;;;;;17.47;77.05;99174.13;5080854;28;45197;-76
2021/10/03 01:11:15;;;;;;;;;0.00;0.00;;;;;17.51;76.44;99178.31;5080887;28;46113;-76
2021/10/03 01:13:40;;;;;;;;;0.00;0.00;;;;;17.44;76.64;99164.59;5082602;27;45238;-76
2021/10/03 01:16:07;;;;;;;;;0.00;0.00;;;;;17.64;77.15;99204.91;5080747;28;46129;-77
2021/10/03 01:18:33;;;;;;;;;1.00;0.00;;;;;17.64;76.58;99196.19;5082862;27;45172;-76
2021/10/03 01:21:06;;;;;;;;;0.00;0.00;;;;;17.51;76.94;99164.28;5081055;28;48295;-76
2021/10/03 01:23:32;;;;;;;;;1.00;0.00;;;;;17.39;77.30;99158.66;5081094;28;45327;-76
2021/10/03 01:25:57;;;;;;;;;0.00;0.00;;;;;17.31;76.79;99147.66;5082352;27;45152;-76
2021/10/03 01:28:22;;;;;;;;;0.00;0.00;;;;;17.48;77.30;99157.41;5081595;28;45647;-76
2021/10/03 01:30:51;;;;;;;;;0.00;0.00;;;;;17.45;77.44;99157.53;5082412;27;46756;-76
2021/10/03 01:33:17;;;;;;;;;0.00;0.00;;;;;17.53;77.04;99172.97;5082285;28;45346;-76
2021/10/03 01:35:43;;;;;;;;;0.00;0.00;;;;;17.11;77.07;99099.44;5080912;27;45428;-76
2021/10/03 01:38:11;;;;;;;;;0.00;0.00;;;;;17.35;77.23;99141.31;5081060;28;45586;-76
2021/10/03 01:40:37;;;;;;;;;0.00;0.00;;;;;17.50;77.13;99157.34;5081866;27;46246;-76
2021/10/03 01:43:03;;;;;;;;;0.00;0.00;;;;;17.35;76.93;99126.41;5082212;27;45377;-76
2021/10/03 01:45:28;;;;;;;;;0.00;0.00;;;;;17.42;77.21;99134.00;5081070;28;45168;-76
2021/10/03 01:47:59;;;;;;;;;0.00;0.00;;;;;17.50;76.87;99136.28;5079669;28;45577;-76
2021/10/03 01:50:25;;;;;;;;;0.00;0.00;;;;;17.37;77.24;99113.19;5078820;27;47412;-76
2021/10/03 01:52:50;;;;;;;;;0.00;0.00;;;;;17.33;76.74;99108.97;5081779;27;45271;-76
2021/10/03 01:55:16;;;;;;;;;0.00;0.00;;;;;17.32;77.27;99104.66;5084988;27;45368;-76
2021/10/03 01:57:41;;;;;;;;;0.00;0.00;;;;;17.41;77.03;99120.00;5086151;27;45325;-76
2021/10/03 02:00:08;;;;;;;;;0.00;0.00;;;;;17.50;76.70;99129.25;5083603;28;47404;-76
2021/10/03 02:02:33;;;;;;;;;0.00;0.00;;;;;17.43;77.20;99115.53;5083520;28;45531;-76
2021/10/03 02:04:58;;;;;;;;;0.00;0.00;;;;;17.26;76.77;99063.72;5082879;28;45460;-76
2021/10/03 02:07:24;;;;;;;;;0.00;0.00;;;;;17.34;77.15;99085.25;5084213;28;45530;-76
2021/10/03 02:09:49;;;;;;;;;0.00;0.00;;;;;17.31;77.51;99066.13;5084918;27;46264;-76
2021/10/03 02:12:14;;;;;;;;;0.00;0.00;;;;;17.25;77.17;99069.03;5083715;28;45279;-76
2021/10/03 02:14:40;;;;;;;;;0.00;0.00;;;;;17.24;76.69;99051.56;5082453;28;45430;-76
2021/10/03 02:17:06;;;;;;;;;0.00;0.00;;;;;17.48;77.04;99089.00;5083239;27;45532;-76
2021/10/03 02:19:32;;;;;;;;;0.00;0.00;;;;;17.46;76.92;99075.94;5084752;27;45437;-76
2021/10/03 02:22:00;;;;;;;;;0.00;0.00;;;;;17.30;77.29;99044.22;5083689;28;45361;-76
2021/10/03 02:24:25;;;;;;;;;0.25;0.00;;;;;17.33;76.75;99038.84;5084450;28;45207;-76
2021/10/03 02:26:51;;;;;;;;;0.00;0.00;;;;;17.41;76.32;99058.66;5083414;28;45620;-76
2021/10/03 02:29:16;;;;;;;;;0.00;0.00;;;;;17.39;76.51;99042.94;5084740;28;46264;-76
2021/10/03 02:31:42;;;;;;;;;0.00;0.00;;;;;17.41;76.97;99048.13;5083608;28;45890;-76
2021/10/03 02:34:07;;;;;;;;;0.00;0.00;;;;;17.42;76.61;99040.19;5085071;27;45740;-76
2021/10/03 02:36:33;;;;;;;;;0.00;0.00;;;;;17.47;76.46;99043.47;5084009;28;45252;-75
2021/10/03 02:38:58;;;;;;;;;0.00;0.00;;;;;17.44;76.51;99046.22;5083087;28;46965;-75
2021/10/03 02:41:25;;;;;;;;;0.00;0.00;;;;;17.39;76.84;99032.44;5083394;28;45417;-76
2021/10/03 02:43:54;;;;;;;;;2.00;0.00;;;;;17.47;76.15;99043.47;5083933;28;45368;-76
2021/10/03 02:46:21;;;;;;;;;0.00;0.00;;;;;17.48;76.66;99053.03;5083827;28;45262;-76
2021/10/03 02:48:51;;;;;;;;;0.00;0.00;;;;;17.34;76.16;99018.66;5084663;27;46835;-75
2021/10/03 02:51:21;;;;;;;;;0.25;0.00;;;;;17.33;76.51;99006.41;5083194;28;45357;-75
2021/10/03 02:53:47;;;;;;;;;0.00;0.00;;;;;17.41;76.07;99019.22;5083412;28;45323;-75
2021/10/03 02:56:15;;;;;;;;;0.00;0.00;;;;;17.47;76.03;99025.03;5084412;27;45586;-76
2021/10/03 02:58:41;;;;;;;;;0.00;0.00;;;;;17.48;75.89;99017.97;5083042;28;48509;-75
2021/10/03 03:01:06;;;;;;;;;2.00;0.00;;;;;17.36;76.42;99003.63;5084611;27;45362;-76
2021/10/03 03:03:33;;;;;;;;;0.00;0.00;;;;;17.46;76.00;99015.44;5083168;28;45338;-76
2021/10/03 03:05:58;;;;;;;;;0.00;0.00;;;;;17.48;76.37;99015.34;5082899;28;45608;-75
2021/10/03 03:08:24;;;;;;;;;0.00;0.00;;;;;17.22;76.07;98973.59;5084524;27;45414;-75
2021/10/03 03:10:49;;;;;;;;;0.00;0.00;;;;;17.34;76.56;98992.34;5083024;27;45266;-76
2021/10/03 03:13:15;;;;;;;;;0.00;0.00;;;;;17.33;75.76;98990.63;5084398;27;45484;-76
2021/10/03 03:15:40;;;;;;;;;0.00;0.00;;;;;17.37;76.36;98989.59;5083169;28;45259;-76
2021/10/03 03:18:06;;;;;;;;;0.00;0.00;;;;;17.13;75.56;98941.63;5084163;27;45385;-76
2021/10/03 03:20:31;;;;;;;;;2.00;0.00;;;;;17.43;75.91;98996.31;5083284;28;45270;-77
2021/10/03 03:22:56;;;;;;;;;0.00;0.00;;;;;17.36;76.18;98985.22;5084588;27;45235;-76
2021/10/03 03:25:22;;;;;;;;;0.00;0.00;;;;;17.10;75.91;98938.22;5084603;27;45456;-76
2021/10/03 03:27:47;;;;;;;;;0.00;0.00;;;;;17.35;75.51;98966.00;5084108;27;46397;-76
2021/10/03 03:30:13;;;;;;;;;0.00;0.00;;;;;17.17;75.86;98936.16;5082448;28;45290;-76
2021/10/03 03:32:39;;;;;;;;;0.00;0.00;;;;;17.35;75.62;98962.50;5083101;28;45501;-75
2021/10/03 03:35:06;;;;;;;;;0.00;0.00;;;;;17.19;75.53;98925.56;5082967;28;45325;-75
2021/10/03 03:37:32;;;;;;;;;0.00;0.00;;;;;17.35;75.10;98951.97;5084062;27;45569;-76
2021/10/03 03:39:57;;;;;;;;;0.00;0.00;;;;;17.41;74.90;98943.78;5082351;28;45282;-76
2021/10/03 03:42:22;;;;;;;;;1.75;1.00;;;;;17.22;75.10;98922.81;5083053;28;45299;-76
2021/10/03 03:44:48;;;;;;;;;0.00;0.00;;;;;17.49;75.07;98972.38;5082963;28;45317;-76
2021/10/03 03:47:13;;;;;;;;;0.00;0.00;;;;;17.48;75.52;98971.50;5084094;27;45644;-76
2021/10/03 03:49:39;;;;;;;;;0.00;0.00;;;;;17.42;74.99;98952.53;5082782;28;45736;-76
2021/10/03 03:52:05;;;;;;;;;0.00;0.00;;;;;17.30;75.01;98949.56;5084124;27;45382;-76
2021/10/03 03:54:30;;;;;;;;;0.00;0.00;;;;;17.30;75.31;98948.72;5082342;28;45509;-75
2021/10/03 03:56:55;;;;;;;;;0.00;0.00;;;;;17.26;75.12;98948.00;5082275;28;47453;-76
2021/10/03 03:59:21;;;;;;;;;0.00;0.00;;;;;17.13;75.02;98931.97;5082629;28;45892;-76
2021/10/03 04:01:46;;;;;;;;;0.50;0.00;;;;;17.25;75.16;98951.56;5082567;28;45228;-76
2021/10/03 04:04:12;;;;;;;;;0.00;0.00;;;;;17.44;74.83;98966.47;5083960;27;45240;-76
2021/10/03 04:06:37;;;;;;;;;0.00;0.00;;;;;17.42;75.16;98981.44;5083430;27;45396;-76
2021/10/03 04:09:03;;;;;;;;;1.00;0.00;;;;;17.44;75.05;98985.75;5081842;28;45350;-76
2021/10/03 04:11:28;;;;;;;;;0.00;0.00;;;;;17.35;74.99;98966.00;5060853;28;45305;-76
2021/10/03 04:13:53;;;;;;;;;0.00;0.00;;;;;17.38;74.92;98974.63;5063513;28;45236;-76
2021/10/03 04:16:19;;;;;;;;;0.75;0.00;;;;;17.20;75.04;98948.31;5060814;28;46133;-76
2021/10/03 04:18:44;;;;;;;;;0.00;0.00;;;;;17.19;75.50;98942.22;5078726;28;45732;-76
2021/10/03 04:21:09;;;;;;;;;0.00;0.00;;;;;17.38;75.40;98983.41;5063388;28;45290;-76
2021/10/03 04:23:35;;;;;;;;;0.00;0.00;;;;;17.22;75.61;98972.75;5062086;28;45413;-75
2021/10/03 04:26:01;;;;;;;;;0.00;0.00;;;;;17.32;75.57;98979.28;5080389;28;46554;-76
2021/10/03 04:28:27;;;;;;;;;0.25;0.00;;;;;17.18;75.47;98974.66;5081440;28;45330;-76
2021/10/03 04:30:53;;;;;;;;;0.00;0.00;;;;;17.32;76.24;98992.44;5083588;27;45968;-76
2021/10/03 04:33:19;;;;;;;;;0.00;0.00;;;;;17.13;76.36;98979.31;5082269;28;45404;-76
2021/10/03 04:35:44;;;;;;;;;0.00;0.00;;;;;17.15;76.50;98995.84;5081904;28;46603;-76
2021/10/03 04:38:10;;;;;;;;;0.00;0.00;;;;;17.24;75.98;98998.97;5083311;27;45336;-76
2021/10/03 04:40:35;;;;;;;;;0.00;0.00;;;;;17.18;76.47;98995.69;5081906;28;45297;-77
2021/10/03 04:43:01;;;;;;;;;0.00;0.00;;;;;17.18;76.80;98986.97;5083787;27;45289;-77
2021/10/03 04:45:26;;;;;;;;;0.00;0.00;;;;;17.17;76.88;98990.50;5081906;28;47091;-77
2021/10/03 04:47:52;;;;;;;;;0.00;0.00;;;;;17.19;76.97;98984.28;5081481;28;45255;-76
2021/10/03 04:50:17;;;;;;;;;0.00;0.00;;;;;17.06;76.59;98969.97;5081891;28;45424;-76
2021/10/03 04:52:43;;;;;;;;;0.00;0.00;;;;;17.14;76.85;98985.38;5083429;27;45459;-75
2021/10/03 04:55:10;;;;;;;;;0.00;0.00;;;;;17.16;76.38;98980.94;5081473;28;47776;-75
2021/10/03 04:57:36;;;;;;;;;0.00;0.00;;;;;17.20;76.57;98993.00;5082723;28;45445;-75
2021/10/03 05:00:07;;;;;;;;;0.00;0.00;;;;;17.19;76.82;98994.78;5082776;28;45337;-75
2021/10/03 05:02:33;;;;;;;;;0.00;0.00;;;;;17.05;76.81;98957.72;5081813;28;45310;-76
2021/10/03 05:04:58;;;;;;;;;0.00;0.00;;;;;17.18;76.90;98995.69;5081951;27;45612;-76
2021/10/03 05:07:24;;;;;;;;;0.00;0.00;;;;;17.05;76.79;99028.69;5081420;28;45867;-76
2021/10/03 05:09:49;;;;;;;;;0.75;0.75;;;;;16.97;77.62;98987.03;5082471;27;45283;-76
2021/10/03 05:12:14;;;;;;;;;0.00;0.00;;;;;17.14;77.79;99007.28;5081100;28;45584;-76
2021/10/03 05:14:40;;;;;;;;;0.00;0.00;;;;;16.97;77.12;99003.63;5082382;27;46471;-76
2021/10/03 05:17:05;;;;;;;;;0.00;0.00;;;;;17.03;78.15;99038.44;5082609;27;45312;-76
2021/10/03 05:19:31;;;;;;;;;0.00;0.00;;;;;16.92;77.39;99041.56;5081013;28;45339;-76
2021/10/03 05:21:56;;;;;;;;;0.00;0.00;;;;;16.70;76.79;99058.28;5081331;28;45283;-76
2021/10/03 05:24:21;;;;;;;;;0.00;0.00;;;;;16.40;76.10;99043.78;5082233;27;45519;-76
2021/10/03 05:26:47;;;;;;;;;0.00;0.00;;;;;16.50;76.01;99061.75;5080987;28;45386;-75
2021/10/03 05:29:12;;;;;;;;;0.00;0.00;;;;;15.99;75.86;99017.50;5084332;28;45387;-76
2021/10/03 05:31:37;;;;;;;;;0.00;0.00;;;;;15.82;75.67;99033.00;5086356;27;45520;-76
2021/10/03 05:34:03;;;;;;;;;0.00;0.00;;;;;15.46;76.17;99007.28;5084549;28;48001;-76
2021/10/03 05:36:28;;;;;;;;;0.00;0.00;;;;;15.42;76.64;99037.19;5084546;28;45329;-75
2021/10/03 05:38:56;;;;;;;;;0.00;0.00;;;;;15.14;76.55;99026.00;5085918;27;45341;-74
2021/10/03 05:41:23;;;;;;;;;0.00;0.00;;;;;15.42;76.45;99082.63;5086090;27;45278;-75
2021/10/03 05:43:48;;;;;;;;;0.00;0.00;;;;;15.28;76.52;99067.41;5084178;28;47620;-75
2021/10/03 05:46:14;;;;;;;;;0.00;0.00;;;;;15.17;77.22;99054.72;5071797;28;45543;-74
2021/10/03 05:48:39;;;;;;;;;0.00;0.00;;;;;15.26;77.38;99071.00;5084998;27;45354;-75
2021/10/03 05:51:05;;;;;;;;;0.00;0.00;;;;;15.46;77.29;99117.44;5082692;28;45448;-75
2021/10/03 05:53:30;;;;;;;;;0.00;0.00;;;;;15.42;76.94;99107.97;5063838;28;47181;-75
2021/10/03 05:55:55;;;;;;;;;0.00;0.00;;;;;15.24;77.13;99102.50;5064924;28;45315;-75
2021/10/03 05:58:21;;;;;;;;;0.00;0.00;;;;;15.32;77.45;99128.44;5063945;28;45360;-75
2021/10/03 06:00:47;;;;;;;;;0.00;0.00;;;;;15.06;77.02;99080.44;5063521;28;45585;-75
2021/10/03 06:03:12;;;;;;;;;0.00;0.00;;;;;15.39;77.82;99150.03;5084453;28;46588;-74
2021/10/03 06:05:37;;;;;;;;;0.00;0.00;;;;;15.40;77.58;99143.88;5083298;27;45468;-75
2021/10/03 06:08:03;;;;;;;;;0.00;0.00;;;;;15.29;76.81;99128.56;5084728;27;45469;-74
2021/10/03 06:10:28;;;;;;;;;0.00;0.00;;;;;15.30;77.19;99104.91;5080180;28;45256;-75
2021/10/03 06:12:55;;;;;;;;;0.00;0.00;;;;;15.47;77.24;99128.78;5068048;27;45385;-75
2021/10/03 06:15:21;;;;;;;;;0.00;0.00;;;;;15.56;76.86;99117.94;5073498;28;45242;-75
2021/10/03 06:17:46;;;;;;;;;0.00;0.00;;;;;15.66;76.78;99124.56;5083117;28;45421;-75
2021/10/03 06:20:12;;;;;;;;;0.00;0.00;;;;;15.79;76.52;99147.69;5068516;27;45302;-75
2021/10/03 06:22:43;;;;;;;;;0.00;0.00;;;;;15.65;76.41;99129.88;5064226;28;46636;-75
2021/10/03 06:25:09;;;;;;;;;0.00;0.00;;;;;15.81;76.27;99157.19;5064112;28;45327;-75
2021/10/03 06:27:34;;;;;;;;;0.00;0.00;;;;;15.85;76.50;99136.94;5079511;28;45794;-75
2021/10/03 06:29:59;;;;;;;;;0.00;0.00;;;;;15.98;76.29;99149.63;5081684;27;45279;-75
2021/10/03 06:32:25;;;;;;;;;0.00;0.00;;;;;15.89;76.29;99133.28;5063777;28;46953;-76
2021/10/03 06:34:50;;;;;;;;;0.00;0.00;;;;;15.78;75.87;99114.50;5063025;28;46058;-79
2021/10/03 06:37:17;;;;;;;;;0.00;0.00;;;;;16.01;75.80;99144.25;5064350;28;45308;-75
2021/10/03 06:39:42;;;;;;;;;0.00;0.00;;;;;15.99;75.58;99117.22;5062091;28;45365;-75
2021/10/03 06:42:07;;;;;;;;;0.00;0.00;;;;;16.22;76.12;99137.28;5064218;28;46207;-75
2021/10/03 06:44:33;;;;;;;;;0.00;0.00;;;;;16.18;75.87;99141.81;5064494;28;45417;-75
2021/10/03 06:46:58;;;;;;;;;0.00;0.00;;;;;16.19;76.23;99146.16;5063255;28;45327;-75
2021/10/03 06:49:24;;;;;;;;;0.00;0.00;;;;;16.26;75.33;99164.28;5064919;28;45538;-73
2021/10/03 06:51:49;;;;;;;;;0.00;0.00;;;;;16.29;75.37;99156.28;5076451;28;46315;-76
2021/10/03 06:54:15;;;;;;;;;0.00;0.00;;;;;16.11;75.36;99079.97;5062991;28;45775;-76
2021/10/03 06:56:40;;;;;;;;;0.00;0.00;;;;;16.14;75.67;99076.38;5064287;28;45237;-75
2021/10/03 06:59:06;;;;;;;;;0.00;0.00;;;;;16.15;75.48;99094.69;5065683;28;45611;-79
2021/10/03 07:01:31;;;;;;;;;0.00;0.00;;;;;16.23;75.64;99131.13;5063480;28;48245;-75
2021/10/03 07:03:56;;;;;;;;;0.00;0.00;;;;;16.09;75.49;99127.28;5063987;28;45319;-76
2021/10/03 07:06:22;;;;;;;;;0.00;0.00;;;;;16.23;75.49;99130.28;5081535;28;45348;-76
2021/10/03 07:08:47;;;;;;;;;0.00;0.00;;;;;16.32;75.65;99157.00;5069057;27;45307;-75
2021/10/03 07:11:13;;;;;;;;;0.00;0.00;;;;;16.43;75.53;99174.97;5071983;27;47001;-76
2021/10/03 07:13:39;;;;;;;;;0.00;0.00;;;;;16.39;75.08;99177.75;5062467;28;45456;-75
2021/10/03 07:16:04;;;;;;;;;0.00;0.00;;;;;15.87;75.33;99106.28;5064643;28;45398;-76
2021/10/03 07:18:30;;;;;;;;;0.00;0.00;;;;;16.43;75.15;99205.59;5064283;28;45295;-75
2021/10/03 07:20:55;;;;;;;;;0.00;0.00;;;;;16.19;75.15;99166.28;5063984;28;45632;-75
2021/10/03 07:23:20;;;;;;;;;0.00;0.00;;;;;16.12;75.64;99167.44;5062116;28;45303;-78
2021/10/03 07:25:46;;;;;;;;;0.00;0.00;;;;;16.21;75.44;99185.47;5074241;28;45512;-78
2021/10/03 07:28:11;;;;;;;;;0.00;0.00;;;;;16.14;75.88;99158.59;5071730;27;45458;-76
2021/10/03 07:30:37;;;;;;;;;0.00;0.00;;;;;16.29;75.61;99186.00;5075834;28;45480;-77
2021/10/03 07:33:02;;;;;;;;;0.00;0.00;;;;;16.27;75.75;99181.75;5069997;28;45530;-76
2021/10/03 07:35:29;;;;;;;;;0.00;0.00;;;;;16.28;75.54;99188.69;5062876;28;45433;-77
2021/10/03 07:37:57;;;;;;;;;0.00;0.00;;;;;16.24;75.69;99166.97;5070994;28;45396;-84
2021/10/03 07:40:22;;;;;;;;;0.00;0.00;;;;;16.08;75.84;99150.97;5069448;27;45325;-78
2021/10/03 07:42:48;;;;;;;;;0.00;0.00;;;;;16.36;75.42;99196.28;5066744;28;45413;-77
2021/10/03 07:45:13;;;;;;;;;0.00;0.00;;;;;16.05;75.02;99149.31;5095642;27;45494;-81
2021/10/03 07:47:39;;;;;;;;;0.00;0.00;;;;;16.11;75.62;99163.13;5075027;27;45406;-76
2021/10/03 07:50:05;;;;;;;;;0.00;0.00;;;;;16.27;75.35;99190.47;5066833;28;47455;-81
2021/10/03 07:52:33;;;;;;;;;0.00;0.00;;;;;16.51;75.91;99229.78;5068009;27;45367;-76
2021/10/03 07:54:58;;;;;;;;;0.00;0.00;;;;;16.32;75.57;99193.75;5079156;28;45385;-77
2021/10/03 07:57:24;;;;;;;;;0.00;0.00;;;;;16.41;75.29;99216.16;5076957;28;45660;-76
2021/10/03 07:59:49;;;;;;;;;0.00;0.00;;;;;16.41;75.50;99216.16;5072156;28;47251;-76
2021/10/03 08:02:14;;;;;;;;;0.00;0.00;;;;;16.35;75.04;99219.03;5067946;28;45476;-77
2021/10/03 08:04:40;;;;;;;;;0.00;0.00;;;;;16.43;75.53;99231.88;5070115;28;45510;-75
2021/10/03 08:07:05;;;;;;;;;0.00;0.00;;;;;16.33;75.73;99215.63;5071771;28;45375;-76
2021/10/03 08:09:30;;;;;;;;;0.00;0.00;;;;;16.43;75.28;99229.25;5075833;27;46281;-76
2021/10/03 08:11:56;;;;;;;;;0.50;0.00;;;;;16.42;75.44;99235.41;5062946;28;45486;-76
2021/10/03 08:14:22;;;;;;;;;0.00;0.00;;;;;16.57;75.92;99262.84;5065042;28;45519;-76
2021/10/03 08:16:48;;;;;;;;;0.00;0.00;;;;;16.52;75.57;99239.38;5078848;28;45345;-76
2021/10/03 08:19:14;;;;;;;;;0.00;0.00;;;;;16.62;75.02;99257.38;5076326;28;47012;-76
2021/10/03 08:21:39;;;;;;;;;0.00;0.00;;;;;16.50;75.74;99241.22;5075985;28;45463;-77
2021/10/03 08:24:05;;;;;;;;;0.00;0.00;;;;;16.69;75.08;99272.84;5067948;27;45556;-78
2021/10/03 08:26:31;;;;;;;;;0.00;0.00;;;;;16.51;75.18;99242.91;5066897;28;45519;-77
2021/10/03 08:28:56;;;;;;;;;0.00;0.00;;;;;16.52;75.85;99257.78;5078040;28;45465;-77
2021/10/03 08:31:22;;;;;;;;;0.00;0.00;;;;;16.53;75.47;99241.09;5071843;28;45427;-77
2021/10/03 08:33:47;;;;;;;;;0.00;0.00;;;;;16.74;75.08;99253.41;5067446;28;45507;-76
2021/10/03 08:36:13;;;;;;;;;0.00;0.00;;;;;16.78;75.33;99263.72;5068498;28;45478;-76
2021/10/03 08:38:38;;;;;;;;;0.00;0.00;;;;;16.75;74.92;99263.03;5072145;28;45624;-78
2021/10/03 08:41:04;;;;;;;;;0.75;0.00;;;;;16.67;75.23;99237.91;5076452;27;45365;-79
2021/10/03 08:43:30;;;;;;;;;0.00;0.00;;;;;16.79;74.94;99272.47;5094953;27;45478;-85
2021/10/03 08:45:57;;;;;;;;;0.00;0.00;;;;;16.68;74.64;99252.75;5072547;27;45339;-80
2021/10/03 08:48:24;;;;;;;;;0.00;0.00;;;;;16.74;74.92;99264.78;5075053;28;47309;-75
2021/10/03 08:50:50;;;;;;;;;0.00;0.00;;;;;16.76;74.94;99275.22;5078006;28;45433;-81
2021/10/03 08:53:16;;;;;;;;;0.00;0.00;;;;;16.60;75.54;99273.22;5065194;28;45490;-78
2021/10/03 08:55:43;;;;;;;;;0.00;0.00;;;;;16.77;75.21;99303.22;5074825;27;45531;-78
2021/10/03 08:58:08;;;;;;;;;0.00;0.00;;;;;16.74;75.18;99296.31;5075726;28;46163;-78
2021/10/03 09:00:44;;;;;;;;;0.00;0.00;;;;;16.94;75.31;99326.19;5069980;28;45282;-77
2021/10/03 09:03:11;;;;;;;;;0.00;0.00;;;;;16.67;75.06;99276.47;5074310;28;45440;-79
2021/10/03 09:05:39;;;;;;;;;0.00;0.00;;;;;17.07;75.73;99337.09;5074894;27;45559;-79
2021/10/03 09:08:10;;;;;;;;;0.00;0.00;;;;;17.04;75.53;99329.31;5066866;27;47596;-81
2021/10/03 09:10:46;;;;;;;;;0.00;0.00;;;;;17.07;75.47;99339.72;5080811;27;45756;-79
2021/10/03 09:13:12;;;;;;;;;0.00;0.00;;;;;17.01;76.20;99327.66;5077916;28;45363;-80
2021/10/03 09:15:37;;;;;;;;;0.00;0.00;;;;;16.93;75.75;99311.31;5069103;28;45444;-78
2021/10/03 09:18:06;;;;;;;;;0.00;0.00;;;;;16.84;76.05;99313.41;5069888;28;48284;-78
2021/10/03 09:20:31;;;;;;;;;0.00;0.00;;;;;16.81;76.18;99315.31;5075525;28;45716;-78
2021/10/03 09:23:11;;;;;;;;;0.00;0.00;;;;;17.05;75.90;99355.53;5079600;27;45500;-77
2021/10/03 09:25:38;;;;;;;;;0.00;0.00;;;;;17.09;76.44;99359.75;5062961;28;45453;-81
2021/10/03 09:28:12;;;;;;;;;0.00;0.00;;;;;16.70;75.87;99287.69;5071048;28;46496;-81
2021/10/03 09:30:54;;;;;;;;;1.50;0.50;;;;;17.08;75.81;99350.19;5066848;28;45449;-81
2021/10/03 09:33:19;;;;;;;;;0.50;0.00;;;;;17.06;76.17;99345.88;5068766;28;45442;-79
2021/10/03 09:35:56;;;;;;;;;0.00;0.00;;;;;16.89;76.12;99328.16;5076114;28;45507;-82
2021/10/03 09:38:21;;;;;;;;;0.00;0.00;;;;;17.01;75.95;99400.41;5088949;28;45342;-83
2021/10/03 09:41:03;;;;;;;;;0.00;0.00;;;;;16.62;75.92;99349.31;5088574;28;46007;-82
2021/10/03 09:43:39;;;;;;;;;0.00;0.00;;;;;16.07;71.78;99437.97;5068875;28;45350;-81
2021/10/03 09:46:04;;;;;;;;;0.00;0.00;;;;;15.36;72.04;99444.66;5072333;28;45439;-82
2021/10/03 09:48:45;;;;;;;;;0.00;0.00;;;;;14.72;73.09;99474.50;5074536;27;45549;-82
2021/10/03 09:51:11;;;;;;;;;0.00;0.00;;;;;14.52;72.95;99525.69;5064350;28;45362;-83
2021/10/03 09:53:38;;;;;;;;;0.00;0.00;;;;;14.06;73.83;99526.00;5067887;28;45456;-83
2021/10/03 09:56:04;;;;;;;;;0.00;0.00;;;;;14.02;74.47;99543.53;5079174;28;45532;-81
2021/10/03 09:58:30;;;;;;;;;0.00;0.00;;;;;14.11;73.59;99596.50;5074101;28;48090;-82
2021/10/03 10:00:55;;;;;;;;;0.00;0.00;;;;;13.64;74.01;99554.00;5075656;28;45429;-82
2021/10/03 10:03:21;;;;;;;;;0.00;0.00;;;;;13.75;74.71;99574.66;5081430;28;45496;-84
2021/10/03 10:05:48;;;;;;;;;0.00;0.00;;;;;13.75;74.73;99579.91;5068793;28;45381;-82
2021/10/03 10:08:13;;;;;;;;;0.00;0.00;;;;;13.66;74.62;99601.06;5074159;28;46320;-83
2021/10/03 10:10:39;;;;;;;;;0.00;0.00;;;;;13.66;74.63;99609.75;5071563;28;45340;-81
2021/10/03 10:13:13;;;;;;;;;0.00;0.00;;;;;13.83;74.46;99659.94;5066045;28;45521;-81
2021/10/03 10:15:39;;;;;;;;;0.00;0.00;;;;;13.73;74.63;99661.91;5074805;27;45368;-82
2021/10/03 10:18:25;;;;;;;;;0.00;0.00;;;;;13.79;74.56;99730.63;5069976;28;47241;-82
2021/10/03 10:20:53;;;;;;;;;0.00;0.00;;;;;13.71;74.44;99698.56;5080320;28;45299;-82
2021/10/03 10:23:26;;;;;;;;;0.00;0.00;;;;;13.51;73.80;99676.28;5069196;28;45394;-81
2021/10/03 10:25:56;;;;;;;;;0.00;0.00;;;;;13.76;73.94;99706.31;5084693;27;45510;-79
2021/10/03 10:28:42;;;;;;;;;0.00;0.00;;;;;13.76;74.12;99709.81;5067124;28;45530;-80
2021/10/03 10:31:22;;;;;;;;;0.00;0.00;;;;;13.55;74.07;99701.50;5072953;28;45389;-80
2021/10/03 10:33:51;;;;;;;;;0.00;0.00;;;;;13.87;74.32;99759.25;5072612;28;45412;-78
2021/10/03 10:36:26;;;;;;;;;0.00;0.00;;;;;13.72;74.67;99752.56;5082982;28;45404;-82
2021/10/03 10:39:07;;;;;;;;;0.00;0.00;;;;;13.99;73.80;99765.13;5072568;28;45453;-77
2021/10/03 10:41:34;;;;;;;;;0.00;0.00;;;;;13.73;73.69;99748.22;5077066;27;45443;-78
2021/10/03 10:44:00;;;;;;;;;0.00;0.00;;;;;13.58;73.64;99724.13;5073502;27;45448;-78
2021/10/03 10:46:49;;;;;;;;;0.00;0.00;;;;;13.75;73.11;99764.75;5076321;27;45644;-78
2021/10/03 10:49:25;;;;;;;;;0.00;0.00;;;;;13.90;73.02;99801.06;5092180;27;48446;-78
2021/10/03 10:52:22;;;;;;;;;0.00;0.00;;;;;13.81;73.17;99819.53;5070627;28;45868;-77
2021/10/03 10:55:09;;;;;;;;;0.00;0.00;;;;;13.81;73.63;99850.94;5077863;28;45401;-77
2021/10/03 10:57:49;;;;;;;;;0.00;0.00;;;;;13.96;73.98;99862.84;5077344;28;45684;-78
2021/10/03 11:00:18;;;;;;;;;0.00;0.00;;;;;14.14;73.95;99877.34;5073772;28;47627;-77
2021/10/03 11:02:51;;;;;;;;;0.00;0.00;;;;;14.31;73.53;99884.00;5082929;27;45408;-77
2021/10/03 11:05:42;;;;;;;;;0.00;0.00;;;;;14.32;73.17;99870.88;5076297;28;45243;-76
2021/10/03 11:08:11;;;;;;;;;0.00;0.00;;;;;14.33;72.00;99858.63;5073659;27;45463;-78
2021/10/03 11:11:02;;;;;;;;;0.00;0.00;;;;;14.41;71.57;99863.72;5079972;28;46227;-77
2021/10/03 11:13:40;;;;;;;;;0.00;0.00;;;;;14.35;71.08;99866.44;5082062;28;45405;-78
2021/10/03 11:16:26;;;;;;;;;0.00;0.00;;;;;14.33;70.94;99861.25;5081736;28;45417;-79
2021/10/03 11:19:16;;;;;;;;;0.00;0.00;;;;;14.43;71.14;99875.03;5082499;27;45263;-79
2021/10/03 11:21:49;;;;;;;;;0.00;0.00;;;;;14.61;71.41;99888.63;5070599;28;47497;-78
2021/10/03 11:24:42;;;;;;;;;0.00;0.00;;;;;14.75;70.43;99889.16;5078243;28;45930;-78
2021/10/03 11:27:11;;;;;;;;;0.00;0.00;;;;;14.87;70.14;99918.63;5075886;28;45294;-80
2021/10/03 11:29:45;;;;;;;;;0.00;0.00;;;;;14.89;69.83;99925.56;5070105;28;45456;-79
2021/10/03 11:32:14;;;;;;;;;0.00;0.00;;;;;14.91;69.54;99926.41;5081387;27;47089;-79
2021/10/03 11:34:43;;;;;;;;;0.00;0.00;;;;;15.07;69.31;99952.28;5077320;28;45391;-79